createdAt,value
2022-09-07T00:00:24.674Z,10.90
2022-09-07T00:03:03.086Z,10.80
2022-09-07T00:05:31.624Z,10.70
2022-09-07T00:08:00.141Z,10.70
2022-09-07T00:10:27.664Z,10.70
2022-09-07T00:13:01.005Z,10.60
2022-09-07T00:15:28.103Z,10.60
2022-09-07T00:17:55.884Z,10.60
2022-09-07T00:20:24.878Z,10.50
2022-09-07T00:23:31.486Z,10.50
2022-09-07T00:26:03.762Z,10.40
2022-09-07T00:28:31.464Z,10.30
2022-09-07T00:30:58.854Z,10.20
2022-09-07T00:33:38.780Z,10.20
2022-09-07T00:36:20.092Z,10.10
2022-09-07T00:38:50.946Z,10.10
2022-09-07T00:41:34.406Z,10.10
2022-09-07T00:44:51.430Z,10.00
2022-09-07T00:50:33.621Z,10.00
2022-09-07T00:53:23.562Z,9.80
2022-09-07T00:55:52.659Z,9.80
2022-09-07T00:58:22.845Z,9.70
2022-09-07T01:00:50.684Z,9.60
2022-09-07T01:03:27.288Z,9.60
2022-09-07T01:06:16.385Z,9.60
2022-09-07T01:08:45.310Z,9.50
2022-09-07T01:14:13.936Z,9.40
2022-09-07T01:16:41.088Z,9.30
2022-09-07T01:19:23.450Z,9.30
2022-09-07T01:22:50.359Z,9.20
2022-09-07T01:25:45.564Z,9.30
2022-09-07T01:28:32.797Z,9.00
2022-09-07T01:31:24.598Z,8.90
2022-09-07T01:37:23.943Z,8.80
2022-09-07T01:40:02.871Z,8.60
2022-09-07T01:42:36.935Z,8.60
2022-09-07T01:45:11.520Z,8.50
2022-09-07T01:47:57.144Z,8.60
2022-09-07T01:50:35.779Z,8.50
2022-09-07T01:53:24.774Z,8.40
2022-09-07T01:56:32.438Z,8.30
2022-09-07T01:59:08.227Z,8.30
2022-09-07T02:01:41.919Z,8.20
2022-09-07T02:04:24.598Z,8.10
2022-09-07T02:07:09.213Z,8.10
2022-09-07T02:09:51.714Z,8.10
2022-09-07T02:12:25.003Z,8.00
2022-09-07T02:15:02.461Z,8.00
2022-09-07T02:17:42.093Z,7.90
2022-09-07T02:20:31.362Z,8.00
2022-09-07T02:23:04.974Z,8.00
2022-09-07T02:25:47.212Z,7.90
2022-09-07T02:28:23.899Z,7.90
2022-09-07T02:30:51.221Z,7.90
2022-09-07T02:33:18.844Z,7.80
2022-09-07T02:35:46.539Z,7.80
2022-09-07T02:38:14.098Z,7.80
2022-09-07T02:40:41.246Z,7.80
2022-09-07T02:43:10.781Z,7.80
2022-09-07T02:45:56.471Z,7.80
2022-09-07T02:48:31.411Z,7.70
2022-09-07T02:51:33.298Z,7.70
2022-09-07T02:54:03.128Z,7.70
2022-09-07T02:56:51.733Z,7.70
2022-09-07T03:00:05.745Z,7.70
2022-09-07T03:02:45.742Z,7.60
2022-09-07T03:05:37.831Z,7.60
2022-09-07T03:08:21.073Z,7.60
2022-09-07T03:10:49.111Z,7.50
2022-09-07T03:13:31.849Z,7.50
2022-09-07T03:16:02.279Z,7.50
2022-09-07T03:18:29.781Z,7.50
2022-09-07T03:20:56.837Z,7.40
2022-09-07T03:26:07.463Z,7.40
2022-09-07T03:28:34.511Z,7.30
2022-09-07T03:31:03.023Z,7.40
2022-09-07T03:33:30.021Z,7.30
2022-09-07T03:36:00.160Z,7.30
2022-09-07T03:41:18.766Z,7.30
2022-09-07T03:43:49.083Z,7.10
2022-09-07T03:46:19.580Z,7.10
2022-09-07T03:48:48.608Z,7.10
2022-09-07T03:51:18.134Z,7.10
2022-09-07T03:53:51.524Z,7.00
2022-09-07T03:56:23.595Z,7.00
2022-09-07T03:58:51.574Z,7.00
2022-09-07T04:01:21.414Z,6.90
2022-09-07T04:03:48.576Z,6.90
2022-09-07T04:06:16.634Z,6.90
2022-09-07T04:08:44.720Z,6.80
2022-09-07T04:11:17.866Z,6.80
2022-09-07T04:13:46.386Z,6.80
2022-09-07T04:16:19.844Z,6.80
2022-09-07T04:18:47.660Z,6.80
2022-09-07T04:21:14.709Z,6.80
2022-09-07T04:23:48.140Z,6.80
2022-09-07T04:26:21.836Z,6.80
2022-09-07T04:28:49.350Z,6.80
2022-09-07T04:31:18.153Z,6.90
2022-09-07T04:33:46.992Z,6.90
2022-09-07T04:36:17.837Z,6.90
2022-09-07T04:38:46.466Z,7.00
2022-09-07T04:41:15.904Z,7.00
2022-09-07T04:43:47.432Z,7.00
2022-09-07T04:46:26.832Z,7.10
2022-09-07T04:49:02.643Z,7.10
2022-09-07T04:51:32.119Z,7.20
2022-09-07T04:54:01.727Z,7.20
2022-09-07T04:56:29.178Z,7.30
2022-09-07T04:58:56.855Z,7.40
2022-09-07T05:01:26.257Z,7.50
2022-09-07T05:03:53.809Z,7.50
2022-09-07T05:06:22.397Z,7.70
2022-09-07T05:08:52.273Z,7.60
2022-09-07T05:11:29.904Z,7.70
2022-09-07T05:14:02.214Z,7.70
2022-09-07T05:16:30.385Z,7.80
2022-09-07T05:19:05.967Z,7.90
2022-09-07T05:21:35.845Z,8.00
2022-09-07T05:24:03.116Z,8.10
2022-09-07T05:26:37.248Z,8.20
2022-09-07T05:32:03.231Z,8.40
2022-09-07T05:34:33.428Z,8.50
2022-09-07T05:37:02.206Z,8.60
2022-09-07T05:39:32.353Z,8.70
2022-09-07T05:42:12.223Z,8.80
2022-09-07T05:47:09.265Z,9.10
2022-09-07T05:49:36.619Z,9.20
2022-09-07T05:52:03.822Z,9.30
2022-09-07T05:54:30.746Z,9.40
2022-09-07T05:56:57.850Z,9.40
2022-09-07T05:59:24.905Z,9.60
2022-09-07T06:01:51.928Z,9.70
2022-09-07T06:04:27.095Z,9.80
2022-09-07T06:12:28.345Z,10.10
2022-09-07T06:14:55.284Z,10.20
2022-09-07T06:17:22.347Z,10.30
2022-09-07T06:19:49.313Z,10.40
2022-09-07T06:22:16.481Z,10.50
2022-09-07T06:24:43.694Z,10.60
2022-09-07T06:27:11.005Z,10.80
2022-09-07T06:29:38.339Z,10.80
2022-09-07T06:34:52.905Z,11.00
2022-09-07T06:37:20.060Z,11.20
2022-09-07T06:39:54.533Z,11.30
2022-09-07T06:42:21.837Z,11.50
2022-09-07T06:45:04.457Z,11.50
2022-09-07T06:50:24.353Z,11.90
2022-09-07T06:55:50.571Z,12.00
2022-09-07T06:58:17.941Z,12.20
2022-09-07T07:03:54.302Z,12.40
2022-09-07T07:06:22.015Z,12.50
2022-09-07T07:08:54.449Z,12.60
2022-09-07T07:14:07.786Z,12.80
2022-09-07T07:16:36.682Z,12.90
2022-09-07T07:19:16.385Z,13.10
2022-09-07T07:27:48.243Z,13.60
2022-09-07T07:30:17.961Z,13.80
2022-09-07T07:32:52.459Z,14.00
2022-09-07T07:35:19.871Z,14.00
2022-09-07T07:37:48.255Z,14.20
2022-09-07T07:40:16.641Z,14.30
2022-09-07T07:42:45.708Z,14.50
2022-09-07T07:48:03.658Z,14.80
2022-09-07T07:50:31.783Z,14.90
2022-09-07T07:55:47.640Z,15.10
2022-09-07T07:58:27.881Z,15.20
2022-09-07T08:00:59.401Z,15.30
2022-09-07T08:03:55.458Z,15.40
2022-09-07T08:06:34.495Z,15.60
2022-09-07T08:09:11.287Z,15.80
2022-09-07T08:11:43.722Z,15.90
2022-09-07T08:14:22.774Z,16.00
2022-09-07T08:16:49.868Z,16.10
2022-09-07T08:19:17.007Z,16.40
2022-09-07T08:21:43.930Z,16.50
2022-09-07T08:24:14.614Z,16.70
2022-09-07T08:26:41.908Z,16.70
2022-09-07T08:29:08.913Z,17.30
2022-09-07T08:31:35.986Z,18.40
2022-09-07T08:34:07.682Z,19.20
2022-09-07T08:36:34.505Z,20.00
2022-09-07T08:39:01.602Z,20.30
2022-09-07T08:58:54.155Z,21.50
2022-09-07T09:11:19.896Z,22.80
2022-09-07T09:20:50.534Z,23.10
2022-09-07T09:23:19.939Z,23.60
2022-09-07T09:26:13.833Z,23.70
2022-09-07T09:29:21.020Z,23.90
2022-09-07T09:38:35.537Z,24.40
2022-09-07T09:41:15.671Z,24.50
2022-09-07T10:06:59.020Z,25.40
2022-09-07T10:09:44.229Z,26.20
2022-09-07T10:12:54.215Z,26.20
2022-09-07T10:22:30.557Z,26.30
2022-09-07T10:24:57.849Z,26.70
2022-09-07T10:27:33.231Z,26.90
2022-09-07T10:30:06.847Z,27.10
2022-09-07T10:33:03.034Z,27.60
2022-09-07T10:35:37.035Z,27.70
2022-09-07T10:38:19.730Z,28.00
2022-09-07T10:41:28.616Z,27.80
2022-09-07T10:48:04.115Z,28.10
2022-09-07T10:58:06.617Z,28.80
2022-09-07T11:01:19.613Z,28.10
2022-09-07T11:04:19.096Z,28.50
2022-09-07T11:06:55.373Z,28.70
2022-09-07T11:09:36.910Z,29.20
2022-09-07T11:12:07.156Z,29.50
2022-09-07T11:14:45.354Z,29.80
2022-09-07T11:17:20.766Z,29.70
2022-09-07T11:20:33.748Z,29.90
2022-09-07T11:23:31.973Z,30.40
2022-09-07T11:26:32.045Z,30.20
2022-09-07T11:29:32.390Z,30.30
2022-09-07T11:32:33.550Z,30.60
2022-09-07T11:35:31.385Z,31.50
2022-09-07T11:38:04.034Z,31.80
2022-09-07T11:40:43.684Z,32.20
2022-09-07T11:43:20.175Z,32.40
2022-09-07T11:46:09.064Z,32.60
2022-09-07T11:49:04.373Z,33.70
2022-09-07T11:51:40.359Z,32.50
2022-09-07T11:54:40.204Z,32.80
2022-09-07T11:57:31.267Z,33.50
2022-09-07T12:03:34.578Z,34.40
2022-09-07T12:06:50.128Z,34.90
2022-09-07T12:09:57.593Z,34.70
2022-09-07T12:12:37.575Z,35.10
2022-09-07T12:15:11.136Z,35.20
2022-09-07T12:18:23.023Z,35.20
2022-09-07T12:20:50.113Z,35.30
2022-09-07T12:27:01.978Z,35.20
2022-09-07T12:29:35.547Z,34.80
2022-09-07T12:34:54.174Z,34.60
2022-09-07T12:37:40.300Z,33.90
2022-09-07T12:55:27.129Z,33.50
2022-09-07T12:58:19.318Z,33.10
2022-09-07T13:01:09.495Z,32.60
2022-09-07T13:03:52.230Z,31.60
2022-09-07T13:07:08.383Z,30.80
2022-09-07T13:10:12.885Z,29.80
2022-09-07T13:12:53.389Z,28.50
2022-09-07T13:15:41.631Z,27.70
2022-09-07T13:18:36.720Z,27.00
2022-09-07T13:21:09.617Z,26.40
2022-09-07T13:27:06.466Z,25.60
2022-09-07T13:29:41.728Z,25.00
2022-09-07T13:35:25.129Z,24.50
2022-09-07T13:38:01.159Z,24.30
2022-09-07T13:40:33.424Z,24.10
2022-09-07T13:43:03.149Z,23.80
2022-09-07T13:45:54.315Z,23.70
2022-09-07T13:48:51.232Z,23.60
2022-09-07T13:51:42.349Z,23.50
2022-09-07T13:54:51.440Z,23.30
2022-09-07T13:57:57.036Z,23.20
2022-09-07T14:00:24.732Z,22.90
2022-09-07T14:02:56.756Z,23.00
2022-09-07T14:05:24.145Z,23.20
2022-09-07T14:07:59.584Z,23.20
2022-09-07T14:10:29.225Z,23.20
2022-09-07T14:13:12.563Z,23.10
2022-09-07T14:15:43.957Z,23.00
2022-09-07T14:18:36.932Z,22.90
2022-09-07T14:21:19.053Z,22.80
2022-09-07T14:23:51.544Z,22.80
2022-09-07T14:26:24.989Z,22.50
2022-09-07T14:28:57.986Z,22.40
2022-09-07T14:31:25.993Z,22.40
2022-09-07T14:33:58.186Z,22.30
2022-09-07T14:36:47.206Z,22.30
2022-09-07T14:39:43.551Z,22.20
2022-09-07T14:42:18.094Z,22.40
2022-09-07T14:44:45.455Z,22.40
2022-09-07T14:47:48.611Z,22.40
2022-09-07T14:50:39.141Z,22.40
2022-09-07T14:56:08.388Z,22.10
2022-09-07T14:58:35.811Z,22.00
2022-09-07T15:01:40.728Z,22.00
2022-09-07T15:04:19.521Z,22.20
2022-09-07T15:07:02.594Z,22.20
2022-09-07T15:09:38.786Z,22.20
2022-09-07T15:12:37.906Z,22.00
2022-09-07T15:15:27.037Z,21.70
2022-09-07T15:18:06.052Z,21.50
2022-09-07T15:20:44.306Z,21.30
2022-09-07T15:23:19.361Z,21.10
2022-09-07T15:25:52.208Z,21.00
2022-09-07T15:32:04.396Z,20.90
2022-09-07T15:34:32.497Z,20.80
2022-09-07T15:37:01.702Z,20.70
2022-09-07T15:39:30.119Z,20.40
2022-09-07T15:41:58.220Z,20.40
2022-09-07T15:44:28.655Z,20.30
2022-09-07T15:49:53.945Z,20.20
2022-09-07T15:52:23.719Z,20.20
2022-09-07T15:54:50.677Z,20.10
2022-09-07T16:00:08.240Z,20.10
2022-09-07T16:05:30.792Z,20.10
2022-09-07T16:11:05.291Z,19.90
2022-09-07T16:13:33.134Z,19.90
2022-09-07T16:16:00.348Z,19.90
2022-09-07T16:18:31.236Z,19.70
2022-09-07T16:21:04.866Z,19.70
2022-09-07T16:23:31.835Z,19.70
2022-09-07T16:26:01.028Z,19.60
2022-09-07T16:28:29.236Z,19.70
2022-09-07T16:30:57.084Z,19.80
2022-09-07T16:33:33.037Z,19.80
2022-09-07T16:36:13.192Z,19.70
2022-09-07T16:38:46.030Z,19.70
2022-09-07T16:41:14.676Z,19.60
2022-09-07T16:43:41.924Z,19.50
2022-09-07T16:46:14.398Z,19.50
2022-09-07T16:48:41.806Z,19.30
2022-09-07T16:51:11.170Z,19.30
2022-09-07T16:53:39.759Z,19.20
2022-09-07T16:56:12.197Z,19.10
2022-09-07T16:58:44.185Z,19.00
2022-09-07T17:01:14.245Z,18.90
2022-09-07T17:03:41.852Z,18.80
2022-09-07T17:06:23.734Z,18.70
2022-09-07T17:08:50.900Z,18.60
2022-09-07T17:11:21.297Z,18.40
2022-09-07T17:13:49.006Z,18.30
2022-09-07T17:16:51.134Z,18.20
2022-09-07T17:19:33.689Z,18.00
2022-09-07T17:22:07.208Z,17.90
2022-09-07T17:24:35.923Z,17.90
2022-09-07T17:27:04.013Z,17.80
2022-09-07T17:29:37.123Z,17.70
2022-09-07T17:34:51.730Z,17.50
2022-09-07T17:37:18.662Z,17.40
2022-09-07T17:39:45.649Z,17.40
2022-09-07T17:42:24.052Z,17.20
2022-09-07T17:44:54.062Z,17.20
2022-09-07T17:47:21.350Z,17.10
2022-09-07T17:49:57.607Z,17.00
2022-09-07T17:58:29.622Z,16.80
2022-09-07T18:09:16.817Z,16.50
2022-09-07T18:14:30.666Z,16.40
2022-09-07T18:17:18.086Z,16.30
2022-09-07T18:19:45.231Z,16.20
2022-09-07T18:22:12.373Z,16.20
2022-09-07T18:24:39.595Z,16.10
2022-09-07T18:27:07.909Z,16.00
2022-09-07T18:29:39.202Z,16.00
2022-09-07T18:37:14.687Z,15.90
2022-09-07T18:43:19.847Z,15.70
2022-09-07T18:46:45.064Z,15.60
2022-09-07T18:49:32.425Z,15.50
2022-09-07T19:13:45.613Z,15.00
2022-09-07T19:16:22.958Z,15.00
2022-09-07T19:18:53.826Z,14.90
2022-09-07T19:21:32.518Z,14.80
2022-09-07T19:24:04.005Z,14.80
2022-09-07T19:26:39.991Z,14.80
2022-09-07T19:29:15.560Z,14.80
2022-09-07T19:32:13.762Z,14.80
2022-09-07T19:34:53.801Z,14.70
2022-09-07T19:40:19.251Z,14.80
2022-09-07T19:42:46.591Z,14.70
2022-09-07T19:45:15.868Z,14.70
2022-09-07T19:47:42.841Z,14.70
2022-09-07T19:50:09.972Z,14.70
2022-09-07T19:52:36.938Z,14.60
2022-09-07T19:55:04.127Z,14.60
2022-09-07T19:57:31.063Z,14.60
2022-09-07T19:59:58.818Z,14.60
2022-09-07T20:02:28.239Z,14.60
2022-09-07T20:05:04.241Z,14.60
2022-09-07T20:07:31.291Z,14.60
2022-09-07T20:10:02.116Z,14.70
2022-09-07T20:12:29.056Z,14.60
2022-09-07T20:14:56.077Z,14.60
2022-09-07T20:17:35.453Z,14.50
2022-09-07T20:20:06.202Z,14.40
2022-09-07T20:22:33.477Z,14.50
2022-09-07T20:25:00.528Z,14.40
2022-09-07T20:27:27.372Z,14.40
2022-09-07T20:29:54.278Z,14.30
2022-09-07T20:32:21.104Z,14.30
2022-09-07T20:34:49.505Z,14.20
2022-09-07T20:37:16.467Z,14.30
2022-09-07T20:39:43.661Z,14.10
2022-09-07T20:42:10.642Z,14.10
2022-09-07T20:44:37.530Z,14.10
2022-09-07T20:47:04.555Z,14.10
2022-09-07T20:49:34.748Z,14.10
2022-09-07T20:52:02.068Z,14.00
2022-09-07T20:54:29.218Z,13.90
2022-09-07T20:56:56.351Z,13.90
2022-09-07T20:59:24.592Z,13.80
2022-09-07T21:31:22.319Z,13.30
2022-09-07T21:33:53.030Z,13.20
2022-09-07T21:36:19.904Z,13.10
2022-09-07T21:38:47.123Z,13.10
2022-09-07T21:41:16.661Z,13.00
2022-09-07T21:47:02.946Z,13.00
2022-09-07T21:57:50.304Z,12.80
2022-09-07T22:00:17.308Z,12.80
2022-09-07T22:02:44.377Z,12.70
2022-09-07T22:28:15.926Z,12.20
2022-09-07T22:37:49.447Z,12.10
2022-09-07T23:26:40.508Z,11.40
2022-09-07T23:29:07.948Z,11.40
2022-09-07T23:31:38.005Z,11.30
